Time;durP1;ratioP1;P1;durP2;ratioP2;P2;SDS_P1;SDS_P2;PMS_P1;PMS_P2;Temp;Humidity;BMP_temperature;BMP_pressure;BME280_temperature;BME280_humidity;BME280_pressure;Samples;Min_cycle;Max_cycle;Signal;HPM_P1;HPM_P2
2021/01/08 00:02:16;;;;;;;36.60;18.95;;;1.90;99.90;;;;;;5068140;28;20551;-44
2021/01/08 00:04:42;;;;;;;38.58;18.85;;;1.90;99.90;;;;;;5068853;28;20020;-47
2021/01/08 00:07:08;;;;;;;33.25;17.52;;;1.90;99.90;;;;;;5069552;28;20015;-45
2021/01/08 00:09:34;;;;;;;29.05;16.35;;;1.90;99.90;;;;;;5069714;28;20028;-47
2021/01/08 00:11:59;;;;;;;34.10;18.73;;;1.90;99.90;;;;;;5054332;28;20028;-46
2021/01/08 00:14:25;;;;;;;35.92;18.13;;;2.00;99.90;;;;;;5058812;28;20039;-46
2021/01/08 00:16:50;;;;;;;32.05;17.35;;;2.00;99.90;;;;;;5060640;28;20465;-46
2021/01/08 00:19:16;;;;;;;32.75;17.45;;;2.00;99.90;;;;;;5070086;28;20339;-45
2021/01/08 00:21:45;;;;;;;38.13;16.83;;;2.00;99.90;;;;;;5068366;28;20044;-47
2021/01/08 00:24:14;;;;;;;32.72;18.05;;;2.00;99.90;;;;;;5069819;28;20051;-45
2021/01/08 00:26:41;;;;;;;29.83;15.85;;;2.00;99.90;;;;;;5067141;28;20028;-46
2021/01/08 00:29:10;;;;;;;32.03;16.52;;;2.00;99.90;;;;;;5069021;28;20048;-45
2021/01/08 00:31:44;;;;;;;34.42;17.25;;;2.00;99.90;;;;;;5069163;28;20040;-49
2021/01/08 00:34:12;;;;;;;31.58;16.48;;;2.00;99.90;;;;;;5068964;28;20024;-46
2021/01/08 00:36:55;;;;;;;30.95;17.23;;;2.00;99.90;;;;;;5053402;28;20048;-46
2021/01/08 00:39:22;;;;;;;35.97;17.95;;;2.00;99.90;;;;;;5045813;28;20478;-45
2021/01/08 00:41:47;;;;;;;30.90;17.45;;;2.00;99.90;;;;;;5062240;28;20028;-47
2021/01/08 00:44:14;;;;;;;29.77;16.48;;;2.00;99.90;;;;;;5068472;28;20020;-44
2021/01/08 00:46:42;;;;;;;27.65;15.40;;;2.10;99.90;;;;;;5067124;28;20469;-46
2021/01/08 00:49:08;;;;;;;31.33;17.48;;;2.10;99.90;;;;;;5054838;28;20115;-44
2021/01/08 00:51:34;;;;;;;30.13;17.85;;;2.10;99.90;;;;;;5069260;28;20036;-44
2021/01/08 00:54:00;;;;;;;29.50;16.30;;;2.10;99.90;;;;;;5068897;28;20040;-48
2021/01/08 00:56:26;;;;;;;29.80;16.05;;;2.10;99.90;;;;;;5067449;28;20485;-46
2021/01/08 00:58:51;;;;;;;27.98;15.43;;;2.10;99.90;;;;;;5062045;28;20075;-46
2021/01/08 01:01:17;;;;;;;30.25;16.40;;;2.00;99.90;;;;;;5065640;28;20029;-44
2021/01/08 01:03:43;;;;;;;30.33;16.30;;;2.10;99.90;;;;;;5067276;28;20020;-45
2021/01/08 01:06:09;;;;;;;30.75;16.80;;;2.10;99.90;;;;;;5067511;28;20473;-45
2021/01/08 01:08:35;;;;;;;27.95;15.80;;;2.10;99.90;;;;;;5068649;28;20077;-47
2021/01/08 01:11:00;;;;;;;28.20;15.48;;;2.10;99.90;;;;;;5068314;28;20489;-46
2021/01/08 01:13:27;;;;;;;31.80;15.20;;;2.10;99.90;;;;;;5059032;28;20028;-44
2021/01/08 01:15:52;;;;;;;29.17;15.98;;;2.10;99.90;;;;;;5067752;28;20117;-44
2021/01/08 01:18:19;;;;;;;29.35;17.35;;;2.10;99.90;;;;;;5068394;28;20462;-45
2021/01/08 01:20:45;;;;;;;25.60;14.23;;;2.10;99.90;;;;;;5069175;28;20017;-44
2021/01/08 01:23:10;;;;;;;24.10;14.25;;;2.10;99.90;;;;;;5067915;28;20093;-44
2021/01/08 01:25:36;;;;;;;26.25;15.15;;;2.10;99.90;;;;;;5067765;28;20496;-44
2021/01/08 01:28:02;;;;;;;25.23;14.23;;;2.10;99.90;;;;;;5067822;28;20032;-45
2021/01/08 01:30:28;;;;;;;27.42;15.32;;;2.10;99.90;;;;;;5067919;28;20056;-45
2021/01/08 01:32:53;;;;;;;33.03;16.23;;;2.20;99.90;;;;;;5067875;28;20052;-44
2021/01/08 01:35:20;;;;;;;28.45;15.45;;;2.20;99.90;;;;;;5067101;28;20020;-44
2021/01/08 01:37:45;;;;;;;27.27;14.60;;;2.20;99.90;;;;;;5056366;28;20029;-44
2021/01/08 01:40:11;;;;;;;24.50;13.45;;;2.20;99.90;;;;;;5033286;28;20580;-46
2021/01/08 01:42:37;;;;;;;28.02;15.57;;;2.20;99.90;;;;;;5059124;28;20494;-45
2021/01/08 01:45:03;;;;;;;27.30;14.70;;;2.20;99.90;;;;;;5059980;28;20032;-44
2021/01/08 01:47:29;;;;;;;28.27;15.43;;;2.20;99.90;;;;;;5066516;28;20077;-48
2021/01/08 01:49:54;;;;;;;29.10;16.40;;;2.10;99.90;;;;;;5055975;28;20024;-43
2021/01/08 01:52:20;;;;;;;27.83;14.68;;;2.10;99.90;;;;;;5061877;28;20040;-47
2021/01/08 01:54:46;;;;;;;27.70;16.17;;;2.10;99.90;;;;;;5066898;28;20435;-45
2021/01/08 01:57:11;;;;;;;28.88;16.33;;;2.10;99.90;;;;;;5064757;28;20025;-45
2021/01/08 01:59:37;;;;;;;27.63;15.23;;;2.10;99.90;;;;;;5051304;28;20024;-47
2021/01/08 02:02:12;;;;;;;25.27;14.88;;;2.10;99.90;;;;;;5062639;28;20090;-45
2021/01/08 02:04:38;;;;;;;30.63;16.50;;;2.10;99.90;;;;;;5066828;28;20040;-44
2021/01/08 02:07:04;;;;;;;28.63;15.30;;;2.10;99.90;;;;;;5065125;28;20031;-47
2021/01/08 02:09:31;;;;;;;27.13;14.30;;;2.20;99.90;;;;;;5061095;28;20089;-45
2021/01/08 02:11:58;;;;;;;29.45;16.45;;;2.20;99.90;;;;;;5066622;28;20028;-45
2021/01/08 02:14:27;;;;;;;30.55;16.80;;;2.20;99.90;;;;;;5059671;28;20033;-44
2021/01/08 02:16:54;;;;;;;29.58;17.15;;;2.20;99.90;;;;;;5067441;28;20082;-44
2021/01/08 02:19:32;;;;;;;28.27;15.57;;;2.10;99.90;;;;;;5067578;28;20444;-46
2021/01/08 02:22:10;;;;;;;30.30;15.60;;;2.10;99.90;;;;;;5067662;28;20019;-45
2021/01/08 02:24:44;;;;;;;29.95;15.93;;;2.10;99.90;;;;;;5066419;28;20040;-45
2021/01/08 02:27:09;;;;;;;29.63;15.23;;;2.10;99.90;;;;;;5067324;28;20394;-47
2021/01/08 02:29:36;;;;;;;31.48;17.60;;;2.10;99.90;;;;;;5066046;28;20024;-46
2021/01/08 02:32:02;;;;;;;30.00;16.30;;;2.10;99.90;;;;;;5063383;28;20029;-44
2021/01/08 02:34:28;;;;;;;33.38;16.63;;;2.10;99.90;;;;;;5047160;28;20376;-47
2021/01/08 02:36:54;;;;;;;30.42;16.67;;;2.10;99.90;;;;;;5064070;28;20522;-45
2021/01/08 02:39:21;;;;;;;29.02;15.65;;;2.10;99.90;;;;;;5049461;28;20056;-45
2021/01/08 02:41:50;;;;;;;29.95;16.27;;;2.10;99.90;;;;;;5054166;28;20505;-44
2021/01/08 02:44:18;;;;;;;27.42;15.70;;;2.10;99.90;;;;;;5066763;28;20024;-45
2021/01/08 02:46:44;;;;;;;29.58;15.40;;;2.10;99.90;;;;;;5067053;28;20063;-45
2021/01/08 02:49:09;;;;;;;29.65;17.17;;;2.10;99.90;;;;;;5052989;28;20401;-47
2021/01/08 02:51:35;;;;;;;33.45;16.90;;;2.10;99.90;;;;;;5067536;28;20031;-44
2021/01/08 02:54:02;;;;;;;32.78;16.77;;;2.10;99.90;;;;;;5066970;28;20064;-44
2021/01/08 02:56:58;;;;;;;34.10;16.80;;;2.20;99.90;;;;;;5066295;28;20030;-44
2021/01/08 02:59:23;;;;;;;30.83;16.65;;;2.10;99.90;;;;;;5062414;28;20043;-47
2021/01/08 03:01:49;;;;;;;29.70;16.58;;;2.10;99.90;;;;;;5067218;28;20020;-45
2021/01/08 03:04:15;;;;;;;31.80;17.20;;;2.10;99.90;;;;;;5066756;28;20134;-45
2021/01/08 03:06:43;;;;;;;35.88;18.90;;;2.10;99.90;;;;;;5070426;28;20078;-45
2021/01/08 03:09:09;;;;;;;32.55;17.60;;;2.10;99.90;;;;;;5067166;28;20025;-45
2021/01/08 03:11:35;;;;;;;34.65;17.10;;;2.10;99.90;;;;;;5071231;28;20036;-45
2021/01/08 03:14:01;;;;;;;30.60;17.70;;;2.10;99.90;;;;;;5068777;28;20025;-45
2021/01/08 03:16:26;;;;;;;31.83;16.58;;;2.10;99.90;;;;;;5069973;28;20389;-45
2021/01/08 03:18:51;;;;;;;32.28;18.05;;;2.10;99.90;;;;;;5070771;28;20037;-45
2021/01/08 03:21:17;;;;;;;30.60;17.27;;;2.10;99.90;;;;;;5070622;28;20481;-45
2021/01/08 03:23:42;;;;;;;30.75;15.93;;;2.10;99.90;;;;;;5070470;28;20016;-46
2021/01/08 03:26:08;;;;;;;32.10;16.48;;;2.10;99.90;;;;;;5069675;28;20029;-46
2021/01/08 03:28:33;;;;;;;27.02;15.13;;;2.10;99.90;;;;;;5069518;28;20024;-48
2021/01/08 03:30:59;;;;;;;28.23;15.00;;;2.10;99.90;;;;;;5069383;28;20121;-46
2021/01/08 03:33:25;;;;;;;27.92;15.45;;;2.10;99.90;;;;;;5070131;28;20029;-45
2021/01/08 03:35:50;;;;;;;23.70;13.23;;;2.10;99.90;;;;;;5069917;28;20094;-44
2021/01/08 03:38:16;;;;;;;23.60;12.45;;;2.10;99.90;;;;;;5062966;28;20025;-45
2021/01/08 03:40:41;;;;;;;24.20;14.02;;;2.10;99.90;;;;;;5051358;28;20045;-45
2021/01/08 03:43:08;;;;;;;21.60;12.07;;;2.10;99.90;;;;;;5061253;28;20104;-47
2021/01/08 03:45:34;;;;;;;22.65;12.82;;;2.10;99.90;;;;;;5057703;28;20025;-44
2021/01/08 03:47:59;;;;;;;21.85;13.13;;;2.10;99.90;;;;;;5064347;28;20077;-45
2021/01/08 03:50:25;;;;;;;23.05;13.65;;;2.10;99.90;;;;;;5067902;28;20028;-45
2021/01/08 03:52:50;;;;;;;21.50;12.55;;;2.10;99.90;;;;;;5065401;28;20035;-45
2021/01/08 03:55:16;;;;;;;24.48;13.55;;;2.10;99.90;;;;;;5063179;28;20064;-45
2021/01/08 03:57:41;;;;;;;22.92;12.60;;;2.10;99.90;;;;;;5061334;28;20027;-45
2021/01/08 04:00:07;;;;;;;23.55;13.23;;;2.10;99.90;;;;;;5064512;28;20025;-44
2021/01/08 04:02:33;;;;;;;23.88;13.02;;;2.10;99.90;;;;;;5066091;28;20024;-45
2021/01/08 04:04:59;;;;;;;24.08;13.30;;;2.10;99.90;;;;;;5063692;28;20081;-45
2021/01/08 04:07:24;;;;;;;22.33;12.55;;;2.10;99.90;;;;;;5067717;28;20399;-44
2021/01/08 04:09:49;;;;;;;21.45;12.77;;;2.10;99.90;;;;;;5067591;28;20027;-47
2021/01/08 04:12:15;;;;;;;21.17;12.68;;;2.10;99.90;;;;;;5060811;28;20117;-45
2021/01/08 04:14:40;;;;;;;24.23;13.25;;;2.10;99.90;;;;;;5060949;28;20082;-45
2021/01/08 04:17:06;;;;;;;23.38;12.77;;;2.10;99.90;;;;;;5063470;28;20485;-44
2021/01/08 04:19:31;;;;;;;25.60;13.05;;;2.00;99.90;;;;;;5064979;28;20055;-45
2021/01/08 04:21:57;;;;;;;23.88;13.45;;;2.10;99.90;;;;;;5064509;28;20063;-45
2021/01/08 04:24:23;;;;;;;24.40;12.80;;;2.00;99.90;;;;;;5066811;28;20020;-45
2021/01/08 04:26:48;;;;;;;26.63;13.43;;;2.00;99.90;;;;;;5066698;28;20024;-44
2021/01/08 04:29:14;;;;;;;23.92;13.95;;;2.00;99.90;;;;;;5063404;28;20097;-44
2021/01/08 04:31:41;;;;;;;25.90;14.15;;;2.00;99.90;;;;;;5062232;28;20126;-44
2021/01/08 04:34:07;;;;;;;24.52;13.38;;;2.00;99.90;;;;;;5064147;28;20016;-44
2021/01/08 04:36:33;;;;;;;27.10;14.68;;;2.00;99.90;;;;;;5041992;28;20041;-44
2021/01/08 04:38:59;;;;;;;27.15;14.57;;;1.90;99.90;;;;;;5029466;28;20013;-44
2021/01/08 04:41:24;;;;;;;25.48;13.32;;;2.00;99.90;;;;;;5038585;28;20025;-45
2021/01/08 04:43:50;;;;;;;25.63;14.40;;;2.00;99.90;;;;;;5042184;28;20104;-44
2021/01/08 04:46:18;;;;;;;28.90;15.45;;;2.00;99.90;;;;;;5028761;28;20025;-44
2021/01/08 04:48:44;;;;;;;25.90;13.48;;;1.90;99.90;;;;;;5040718;28;20469;-45
2021/01/08 04:51:12;;;;;;;28.90;14.80;;;1.90;99.90;;;;;;5066595;28;20025;-45
2021/01/08 04:53:38;;;;;;;29.98;15.68;;;1.90;99.90;;;;;;5067344;28;20040;-45
2021/01/08 04:56:07;;;;;;;29.63;15.60;;;1.90;99.90;;;;;;5067511;28;20036;-44
2021/01/08 04:58:33;;;;;;;26.65;14.85;;;1.90;99.90;;;;;;5068126;28;20135;-46
2021/01/08 05:01:00;;;;;;;31.48;16.25;;;1.90;99.90;;;;;;5068606;28;20525;-45
2021/01/08 05:03:27;;;;;;;27.63;15.52;;;1.90;99.90;;;;;;5069089;28;20137;-42
2021/01/08 05:05:53;;;;;;;29.17;16.35;;;1.90;99.90;;;;;;5066342;28;20029;-43
2021/01/08 05:08:18;;;;;;;30.63;16.40;;;1.90;99.90;;;;;;5068113;28;20083;-44
2021/01/08 05:10:45;;;;;;;33.53;17.50;;;1.90;99.90;;;;;;5067208;28;20056;-44
2021/01/08 05:13:11;;;;;;;35.00;16.98;;;1.90;99.90;;;;;;5065850;28;20443;-44
2021/01/08 05:15:36;;;;;;;31.63;16.92;;;2.00;99.90;;;;;;5067779;28;20031;-44
2021/01/08 05:18:02;;;;;;;32.00;17.65;;;1.90;99.90;;;;;;5068284;28;20024;-43
2021/01/08 05:20:27;;;;;;;36.65;19.88;;;1.90;99.90;;;;;;5068587;28;20108;-43
2021/01/08 05:22:57;;;;;;;34.58;18.65;;;1.90;99.90;;;;;;5068799;28;20025;-44
2021/01/08 05:25:23;;;;;;;35.17;17.33;;;1.80;99.90;;;;;;5067111;28;20070;-45
2021/01/08 05:27:49;;;;;;;33.03;17.63;;;1.80;99.90;;;;;;5067573;28;20032;-44
2021/01/08 05:30:25;;;;;;;31.98;17.05;;;1.70;99.90;;;;;;5066605;28;20114;-45
2021/01/08 05:33:04;;;;;;;31.85;17.50;;;1.70;99.90;;;;;;5068342;28;20036;-44
2021/01/08 05:35:32;;;;;;;34.42;16.98;;;1.70;99.90;;;;;;5067378;28;20098;-46
2021/01/08 05:38:06;;;;;;;38.85;19.35;;;1.60;99.90;;;;;;5067982;28;20454;-45
2021/01/08 05:40:32;;;;;;;36.45;18.40;;;1.60;99.90;;;;;;5068361;28;20381;-44
2021/01/08 05:43:00;;;;;;;34.75;18.30;;;1.70;99.90;;;;;;5047341;28;20074;-45
2021/01/08 05:45:27;;;;;;;37.38;17.52;;;1.60;99.90;;;;;;5060236;28;20033;-44
2021/01/08 05:47:54;;;;;;;38.78;17.85;;;1.60;99.90;;;;;;5062707;28;20021;-44
2021/01/08 05:50:22;;;;;;;35.83;18.58;;;1.60;99.90;;;;;;5057264;28;20020;-43
2021/01/08 05:53:06;;;;;;;37.72;18.05;;;1.60;99.90;;;;;;5067558;28;20028;-45
2021/01/08 05:55:38;;;;;;;38.80;19.38;;;1.60;99.90;;;;;;5054291;28;20083;-44
2021/01/08 05:58:16;;;;;;;38.05;18.27;;;1.60;99.90;;;;;;5065749;28;20489;-44
2021/01/08 06:00:42;;;;;;;43.03;19.90;;;1.50;99.90;;;;;;5056876;28;20025;-44
2021/01/08 06:03:07;;;;;;;35.38;18.00;;;1.60;99.90;;;;;;5065931;28;20481;-44
2021/01/08 06:05:35;;;;;;;40.00;19.42;;;1.60;99.90;;;;;;5067067;28;20267;-46
2021/01/08 06:08:03;;;;;;;41.47;18.73;;;1.60;99.90;;;;;;5066920;28;21119;-45
2021/01/08 06:10:30;;;;;;;42.70;18.60;;;1.50;99.90;;;;;;5052830;28;20528;-45
2021/01/08 06:12:58;;;;;;;36.40;18.33;;;1.60;99.90;;;;;;5041825;28;20025;-44
2021/01/08 06:15:25;;;;;;;39.15;19.52;;;1.60;99.90;;;;;;5039036;28;20032;-44
2021/01/08 06:17:51;;;;;;;42.63;20.35;;;1.60;99.90;;;;;;5042734;28;20025;-45
2021/01/08 06:20:17;;;;;;;44.70;19.83;;;1.60;99.90;;;;;;5037844;28;20065;-45
2021/01/08 06:22:43;;;;;;;41.88;19.42;;;1.60;99.90;;;;;;5042961;28;20025;-44
2021/01/08 06:25:10;;;;;;;45.42;20.92;;;1.60;99.90;;;;;;5038468;28;20067;-45
2021/01/08 06:27:36;;;;;;;41.95;20.48;;;1.60;99.90;;;;;;5041403;28;20544;-45
2021/01/08 06:30:07;;;;;;;40.03;19.40;;;1.60;99.90;;;;;;5040836;28;20021;-48
2021/01/08 06:32:33;;;;;;;46.42;21.52;;;1.60;99.90;;;;;;5040699;28;20013;-45
2021/01/08 06:35:05;;;;;;;42.85;20.95;;;1.60;99.90;;;;;;5041751;28;20028;-45
2021/01/08 06:37:40;;;;;;;47.47;20.35;;;1.50;99.90;;;;;;5039864;28;20021;-46
2021/01/08 06:40:06;;;;;;;43.00;18.77;;;1.60;99.90;;;;;;5043894;28;20189;-44
2021/01/08 06:42:38;;;;;;;40.58;19.48;;;1.60;99.90;;;;;;5043737;28;20045;-45
2021/01/08 06:45:04;;;;;;;38.22;18.65;;;1.60;99.90;;;;;;5038223;28;20079;-45
2021/01/08 06:47:35;;;;;;;40.90;19.55;;;1.60;99.90;;;;;;5052528;28;20490;-46
2021/01/08 06:50:02;;;;;;;41.70;19.25;;;1.60;99.90;;;;;;5059762;28;20028;-45
2021/01/08 06:52:36;;;;;;;43.45;20.48;;;1.60;99.90;;;;;;5070767;28;20033;-45
2021/01/08 06:55:04;;;;;;;42.83;19.48;;;1.60;99.90;;;;;;5070356;28;20423;-45
2021/01/08 06:57:33;;;;;;;42.40;19.58;;;1.60;99.90;;;;;;5070563;28;20025;-43
2021/01/08 07:00:04;;;;;;;44.30;19.65;;;1.60;99.90;;;;;;5071010;28;20025;-43
2021/01/08 07:02:30;;;;;;;;;;;1.60;99.90;;;;;;5071724;28;20020;-43
2021/01/08 07:04:56;;;;;;;36.72;17.40;;;1.60;99.90;;;;;;5063783;28;19904;-46
2021/01/08 07:07:28;;;;;;;43.30;18.02;;;1.60;99.90;;;;;;5061480;28;20135;-45
2021/01/08 07:09:57;;;;;;;39.78;19.20;;;1.60;99.90;;;;;;5070675;28;20534;-45
2021/01/08 07:12:24;;;;;;;38.30;17.98;;;1.60;99.90;;;;;;5068054;28;20082;-45
2021/01/08 07:14:50;;;;;;;36.72;18.30;;;1.60;99.90;;;;;;5067022;28;20032;-46
2021/01/08 07:17:16;;;;;;;48.83;21.30;;;1.60;99.90;;;;;;5069226;28;20032;-49
2021/01/08 07:19:43;;;;;;;40.53;18.10;;;1.50;99.90;;;;;;5070367;28;20443;-45
2021/01/08 07:22:18;;;;;;;36.78;18.63;;;1.50;99.90;;;;;;5070449;28;20176;-45
2021/01/08 07:24:45;;;;;;;37.38;17.60;;;1.50;99.90;;;;;;5069972;28;20020;-46
2021/01/08 07:27:18;;;;;;;34.90;17.27;;;1.60;99.90;;;;;;5069696;28;20024;-47
2021/01/08 07:29:56;;;;;;;41.22;17.98;;;1.50;99.90;;;;;;5070427;28;20034;-46
2021/01/08 07:32:33;;;;;;;38.00;17.92;;;1.60;99.90;;;;;;5070574;28;20094;-46
2021/01/08 07:35:12;;;;;;;35.83;16.30;;;1.60;99.90;;;;;;5068346;28;20025;-46
2021/01/08 07:38:06;;;;;;;31.52;16.10;;;1.60;99.90;;;;;;5070636;28;20067;-45
2021/01/08 07:40:36;;;;;;;31.15;14.65;;;1.60;99.90;;;;;;5070079;28;20109;-48
2021/01/08 07:43:04;;;;;;;34.05;16.02;;;1.60;99.90;;;;;;5061921;28;20029;-46
2021/01/08 07:45:56;;;;;;;35.97;16.77;;;1.60;99.90;;;;;;5043566;28;20390;-45
2021/01/08 07:48:28;;;;;;;33.38;15.80;;;1.60;99.90;;;;;;5046185;28;20029;-45
2021/01/08 07:51:04;;;;;;;32.83;14.75;;;1.60;99.90;;;;;;5064696;28;20020;-45
2021/01/08 07:53:45;;;;;;;32.15;14.75;;;1.60;99.90;;;;;;5069948;28;20385;-45
2021/01/08 07:56:22;;;;;;;31.75;13.70;;;1.60;99.90;;;;;;5067547;28;20358;-45
2021/01/08 07:59:00;;;;;;;28.90;13.93;;;1.70;99.90;;;;;;5068300;28;20093;-45
2021/01/08 08:01:27;;;;;;;23.83;13.30;;;1.60;99.90;;;;;;5069818;28;20036;-47
2021/01/08 08:04:03;;;;;;;30.65;14.32;;;1.60;99.90;;;;;;5070131;28;20021;-46
2021/01/08 08:06:30;;;;;;;26.40;14.15;;;1.60;99.90;;;;;;5068753;28;20051;-46
2021/01/08 08:09:01;;;;;;;27.92;13.48;;;1.60;99.90;;;;;;5069465;28;20017;-44
2021/01/08 08:11:29;;;;;;;29.10;14.10;;;1.60;99.90;;;;;;5069588;28;20082;-46
2021/01/08 08:13:56;;;;;;;29.70;13.80;;;1.70;99.90;;;;;;5063785;28;20113;-45
2021/01/08 08:16:40;;;;;;;30.13;14.48;;;1.70;99.90;;;;;;5068543;28;20041;-45
2021/01/08 08:19:08;;;;;;;25.23;12.70;;;1.60;99.90;;;;;;5069393;28;20024;-47
2021/01/08 08:21:34;;;;;;;27.52;13.10;;;1.70;99.90;;;;;;5069790;28;20064;-45
2021/01/08 08:24:02;;;;;;;31.30;15.43;;;1.60;99.90;;;;;;5069979;28;20355;-44
2021/01/08 08:26:29;;;;;;;33.58;14.38;;;1.70;99.90;;;;;;5068312;28;20332;-46
2021/01/08 08:29:05;;;;;;;31.77;14.40;;;1.60;99.90;;;;;;5068891;28;20111;-48
2021/01/08 08:31:35;;;;;;;26.52;13.38;;;1.60;99.90;;;;;;5069634;28;20466;-45
2021/01/08 08:34:01;;;;;;;25.77;13.63;;;1.70;99.90;;;;;;5069885;28;20016;-45
2021/01/08 08:36:29;;;;;;;24.48;13.63;;;1.60;99.90;;;;;;5068495;28;20029;-45
2021/01/08 08:39:03;;;;;;;24.63;12.52;;;1.60;99.90;;;;;;5069194;28;20063;-46
2021/01/08 08:41:30;;;;;;;27.90;13.60;;;1.60;99.90;;;;;;5069190;28;20020;-45
2021/01/08 08:44:07;;;;;;;25.85;12.85;;;1.60;99.90;;;;;;5058021;28;20021;-45
2021/01/08 08:46:52;;;;;;;23.65;12.40;;;1.60;99.90;;;;;;5056309;28;20039;-45
2021/01/08 08:49:18;;;;;;;24.02;11.88;;;1.70;99.90;;;;;;5062002;28;20039;-47
2021/01/08 08:51:49;;;;;;;21.30;10.85;;;1.60;99.90;;;;;;5067673;28;20051;-47
2021/01/08 08:54:15;;;;;;;;;;;1.70;99.90;;;;;;5067121;28;20296;-46
2021/01/08 08:56:48;;;;;;;23.20;11.93;;;1.70;99.90;;;;;;5055348;28;19908;-46
2021/01/08 08:59:16;;;;;;;26.33;12.60;;;1.70;99.90;;;;;;5043397;28;20029;-47
2021/01/08 09:01:42;;;;;;;22.42;11.15;;;1.70;99.90;;;;;;5040895;28;20036;-46
2021/01/08 09:04:09;;;;;;;20.02;10.77;;;1.70;99.90;;;;;;5044120;28;20100;-46
2021/01/08 09:06:37;;;;;;;23.73;10.98;;;1.80;99.90;;;;;;5040620;28;20032;-46
2021/01/08 09:09:17;;;;;;;23.73;11.80;;;1.80;99.90;;;;;;5044373;28;20024;-46
2021/01/08 09:12:25;;;;;;;23.58;10.93;;;1.80;99.90;;;;;;5039198;28;20442;-47
2021/01/08 09:14:57;;;;;;;20.92;10.68;;;1.90;99.90;;;;;;5039391;28;20473;-46
2021/01/08 09:17:28;;;;;;;21.63;10.57;;;1.90;99.90;;;;;;5034074;28;20024;-46
2021/01/08 09:20:01;;;;;;;21.38;10.63;;;2.00;99.90;;;;;;5041647;28;20533;-48
2021/01/08 09:22:30;;;;;;;20.08;10.73;;;2.00;99.90;;;;;;5032860;28;20544;-46
2021/01/08 09:25:00;;;;;;;20.73;10.88;;;2.00;99.90;;;;;;5041597;28;20040;-47
2021/01/08 09:27:25;;;;;;;20.08;10.13;;;2.10;99.90;;;;;;5042827;28;20477;-45
2021/01/08 09:29:51;;;;;;;19.77;9.75;;;2.10;99.90;;;;;;5042586;28;20039;-46
2021/01/08 09:32:31;;;;;;;18.50;9.77;;;2.10;99.90;;;;;;5030297;28;20164;-48
2021/01/08 09:35:05;;;;;;;16.13;9.53;;;2.20;99.90;;;;;;5036806;28;20405;-47
2021/01/08 09:37:47;;;;;;;15.60;8.10;;;2.20;99.90;;;;;;5045273;28;20020;-47
2021/01/08 09:40:15;;;;;;;13.60;8.02;;;2.20;99.90;;;;;;5039963;28;20390;-46
2021/01/08 09:42:42;;;;;;;13.77;7.75;;;2.20;99.90;;;;;;5031798;28;20201;-47
2021/01/08 09:45:20;;;;;;;12.63;7.57;;;2.20;99.90;;;;;;5036196;28;20370;-46
2021/01/08 09:47:46;;;;;;;13.95;7.45;;;2.20;99.90;;;;;;5035920;28;20075;-45
2021/01/08 09:50:30;;;;;;;13.50;7.63;;;2.30;99.90;;;;;;5054282;28;20062;-46
2021/01/08 09:52:58;;;;;;;13.32;7.90;;;2.40;99.90;;;;;;5066533;28;20099;-46
2021/01/08 09:55:29;;;;;;;9.95;6.20;;;2.40;99.90;;;;;;5066028;28;20028;-45
2021/01/08 09:57:55;;;;;;;;;;;2.50;99.90;;;;;;5065169;28;20020;-46
2021/01/08 10:00:50;;;;;;;11.52;6.55;;;2.60;99.90;;;;;;5065703;28;19905;-46
2021/01/08 10:03:20;;;;;;;10.13;6.38;;;2.60;99.90;;;;;;5053657;28;20029;-46
2021/01/08 10:05:45;;;;;;;10.75;6.45;;;2.70;99.90;;;;;;5036484;28;20036;-46
2021/01/08 10:08:21;;;;;;;9.38;6.55;;;2.60;99.90;;;;;;5034172;28;20017;-49
2021/01/08 10:10:48;;;;;;;8.32;5.13;;;2.60;99.90;;;;;;5036310;28;20021;-48
2021/01/08 10:13:19;;;;;;;6.95;4.93;;;2.50;99.90;;;;;;5033916;28;20037;-46
2021/01/08 10:15:47;;;;;;;10.23;5.97;;;2.50;99.90;;;;;;5034199;28;20053;-48
2021/01/08 10:18:22;;;;;;;9.07;5.38;;;2.50;99.90;;;;;;5035834;28;20497;-47
2021/01/08 10:20:48;;;;;;;10.68;6.35;;;2.50;99.90;;;;;;5033389;28;20018;-46
2021/01/08 10:23:16;;;;;;;9.43;6.10;;;2.50;99.90;;;;;;5052425;28;20147;-46
2021/01/08 10:25:42;;;;;;;10.73;5.30;;;2.40;99.90;;;;;;5028769;28;20279;-46
2021/01/08 10:28:12;;;;;;;6.53;4.95;;;2.40;99.90;;;;;;5030912;28;20033;-45
2021/01/08 10:30:38;;;;;;;6.70;4.03;;;2.40;99.90;;;;;;5029079;28;20021;-47
2021/01/08 10:33:04;;;;;;;8.50;4.63;;;2.40;99.90;;;;;;5052745;28;20560;-47
2021/01/08 10:35:30;;;;;;;7.53;4.75;;;2.40;99.90;;;;;;5053296;28;20044;-46
2021/01/08 10:37:55;;;;;;;8.10;5.30;;;2.50;99.90;;;;;;5065360;28;20029;-48
2021/01/08 10:40:21;;;;;;;8.40;5.35;;;2.50;99.90;;;;;;5059007;28;20033;-47
2021/01/08 10:42:46;;;;;;;7.38;5.32;;;2.50;99.90;;;;;;5043623;28;20021;-47
2021/01/08 10:45:12;;;;;;;8.43;5.00;;;2.50;99.90;;;;;;5042684;28;20033;-45
2021/01/08 10:47:38;;;;;;;7.65;5.07;;;2.50;99.90;;;;;;5042875;28;20029;-46
2021/01/08 10:50:04;;;;;;;8.43;5.93;;;2.60;99.90;;;;;;5039875;28;20029;-46
2021/01/08 10:52:30;;;;;;;8.50;5.80;;;2.60;99.90;;;;;;5055368;28;20523;-46
2021/01/08 10:54:55;;;;;;;8.15;5.82;;;2.50;99.90;;;;;;5065260;28;20040;-46
2021/01/08 10:57:21;;;;;;;9.88;6.43;;;2.40;99.90;;;;;;5058887;28;20029;-45
2021/01/08 10:59:46;;;;;;;8.40;5.80;;;2.30;99.90;;;;;;5064417;28;20013;-47
2021/01/08 11:02:12;;;;;;;10.07;5.95;;;2.30;99.90;;;;;;5065566;28;20029;-46
2021/01/08 11:04:40;;;;;;;13.50;7.00;;;2.20;99.90;;;;;;5064930;28;20035;-47
2021/01/08 11:07:06;;;;;;;10.07;6.60;;;2.20;99.90;;;;;;5056135;28;20025;-45
2021/01/08 11:09:31;;;;;;;12.32;6.78;;;2.20;99.90;;;;;;5060221;28;20040;-46
2021/01/08 11:11:57;;;;;;;12.38;7.10;;;2.20;99.90;;;;;;5063898;28;20024;-47
2021/01/08 11:14:22;;;;;;;10.05;6.22;;;2.30;99.90;;;;;;5064767;28;20049;-46
2021/01/08 11:16:47;;;;;;;11.18;6.50;;;2.20;99.90;;;;;;5065546;28;20127;-47
2021/01/08 11:19:13;;;;;;;12.82;7.53;;;2.20;99.90;;;;;;5065622;28;20025;-45
2021/01/08 11:21:38;;;;;;;13.27;7.75;;;2.20;99.90;;;;;;5065275;28;20020;-48
2021/01/08 11:24:04;;;;;;;13.40;8.10;;;2.30;99.90;;;;;;5064353;28;20020;-46
2021/01/08 11:26:30;;;;;;;16.75;9.38;;;2.30;99.90;;;;;;5057775;28;20060;-46
2021/01/08 11:28:56;;;;;;;17.58;10.57;;;2.30;99.90;;;;;;5068768;28;20484;-46
2021/01/08 11:31:30;;;;;;;19.98;9.95;;;2.20;99.90;;;;;;5068731;28;20046;-49
2021/01/08 11:33:55;;;;;;;17.38;9.20;;;2.20;99.90;;;;;;5060333;28;20024;-46
2021/01/08 11:36:20;;;;;;;17.90;10.20;;;2.20;99.90;;;;;;5066813;28;20319;-46
2021/01/08 11:38:46;;;;;;;15.23;8.65;;;2.20;99.90;;;;;;5064555;28;20025;-47
2021/01/08 11:41:11;;;;;;;13.10;7.57;;;2.20;99.90;;;;;;5054689;28;20025;-47
2021/01/08 11:43:38;;;;;;;16.67;8.20;;;2.20;99.90;;;;;;5045750;28;20600;-46
2021/01/08 11:46:04;;;;;;;12.90;7.15;;;2.20;99.90;;;;;;5039092;28;20021;-46
2021/01/08 11:48:29;;;;;;;13.60;7.57;;;2.20;99.90;;;;;;5044405;28;20131;-46
2021/01/08 11:50:55;;;;;;;11.85;7.65;;;2.30;99.90;;;;;;5048864;28;20082;-46
2021/01/08 11:53:21;;;;;;;10.05;6.38;;;2.30;99.90;;;;;;5068238;28;20093;-48
2021/01/08 11:55:46;;;;;;;10.95;6.78;;;2.30;99.90;;;;;;5064620;28;20028;-46
2021/01/08 11:58:12;;;;;;;10.45;6.15;;;2.30;99.90;;;;;;5066913;28;20239;-46
2021/01/08 12:00:37;;;;;;;10.73;5.63;;;2.40;99.90;;;;;;5051208;28;20060;-46
2021/01/08 12:03:04;;;;;;;10.15;6.30;;;2.30;99.90;;;;;;5039042;28;20025;-48
2021/01/08 12:05:29;;;;;;;11.55;7.63;;;2.40;99.90;;;;;;5044016;28;20451;-46
2021/01/08 12:07:56;;;;;;;9.18;6.78;;;2.40;99.90;;;;;;5061659;28;20096;-45
2021/01/08 12:10:21;;;;;;;9.48;5.85;;;2.40;99.90;;;;;;5052158;28;20133;-46
2021/01/08 12:12:50;;;;;;;9.02;5.88;;;2.40;99.90;;;;;;5029552;28;20104;-46
2021/01/08 12:15:15;;;;;;;9.57;6.03;;;2.50;99.90;;;;;;5041110;28;20035;-46
2021/01/08 12:17:41;;;;;;;8.30;5.43;;;2.50;99.90;;;;;;5040074;28;20020;-46
2021/01/08 12:20:09;;;;;;;9.30;5.15;;;2.60;99.90;;;;;;5041011;28;20025;-45
2021/01/08 12:22:34;;;;;;;7.57;5.47;;;2.60;99.90;;;;;;5063693;28;20063;-46
2021/01/08 12:25:00;;;;;;;8.98;5.78;;;2.60;99.90;;;;;;5060064;28;20056;-46
2021/01/08 12:27:26;;;;;;;9.38;6.30;;;2.70;99.90;;;;;;5047208;28;20025;-45
2021/01/08 12:29:51;;;;;;;8.00;5.32;;;2.70;99.90;;;;;;5062466;28;20041;-47
2021/01/08 12:32:16;;;;;;;12.35;5.80;;;2.70;99.90;;;;;;5052265;28;20040;-46
2021/01/08 12:34:42;;;;;;;7.65;4.82;;;2.70;99.90;;;;;;5065777;28;20040;-47
2021/01/08 12:37:07;;;;;;;7.40;5.25;;;2.80;99.90;;;;;;5049271;28;20064;-45
2021/01/08 12:39:34;;;;;;;8.70;5.00;;;2.70;99.90;;;;;;5047575;28;20440;-46
2021/01/08 12:42:01;;;;;;;6.85;4.45;;;2.70;99.90;;;;;;5033698;28;20025;-46
2021/01/08 12:44:27;;;;;;;6.97;4.72;;;2.60;99.90;;;;;;5055163;28;20478;-47
2021/01/08 12:46:56;;;;;;;6.82;4.80;;;2.60;99.90;;;;;;5052885;28;20029;-49